Time;durP1;ratioP1;P1;durP2;ratioP2;P2;SDS_P1;SDS_P2;PMS_P1;PMS_P2;Temp;Humidity;BMP_temperature;BMP_pressure;BME280_temperature;BME280_humidity;BME280_pressure;Samples;Min_cycle;Max_cycle;Signal;HPM_P1;HPM_P2
2023/10/31 00:00:17;;;;;;;;;1.00;1.00;;;;;13.29;87.55;99698.34;5058911;28;45432;-60
2023/10/31 00:02:43;;;;;;;;;0.00;0.00;;;;;13.30;87.56;99703.59;5057923;28;46112;-60
2023/10/31 00:05:08;;;;;;;;;3.75;1.00;;;;;13.16;87.66;99691.06;5059246;28;45550;-61
2023/10/31 00:07:33;;;;;;;;;2.00;1.00;;;;;13.24;87.67;99692.41;5057873;28;45462;-60
2023/10/31 00:09:59;;;;;;;;;2.00;1.00;;;;;13.28;87.63;99702.84;5059189;28;45472;-60
2023/10/31 00:12:24;;;;;;;;;1.00;1.00;;;;;13.33;87.46;99718.66;5076292;28;46259;-60
2023/10/31 00:14:49;;;;;;;;;2.50;1.00;;;;;13.11;87.57;99681.53;5077914;28;45371;-60
2023/10/31 00:17:15;;;;;;;;;1.75;1.75;;;;;13.12;87.76;99686.81;5060399;28;48290;-60
2023/10/31 00:19:40;;;;;;;;;1.25;1.25;;;;;13.20;87.54;99710.47;5069421;28;45502;-62
2023/10/31 00:22:05;;;;;;;;;2.50;2.50;;;;;13.25;87.51;99712.88;5060577;27;45530;-60
2023/10/31 00:24:32;;;;;;;;;4.00;1.50;;;;;13.14;87.67;99690.25;5058837;28;45307;-60
2023/10/31 00:26:57;;;;;;;;;0.00;0.00;;;;;13.12;87.42;99684.13;5059017;28;45381;-60
2023/10/31 00:29:22;;;;;;;;;2.75;1.00;;;;;13.19;87.71;99698.03;5058920;28;45494;-60
2023/10/31 00:31:48;;;;;;;;;1.00;1.00;;;;;13.18;87.13;99706.16;5058430;28;45352;-60
2023/10/31 00:34:13;;;;;;;;;2.00;2.00;;;;;13.18;87.02;99707.03;5058984;28;45351;-60
2023/10/31 00:36:38;;;;;;;;;1.75;1.00;;;;;13.18;87.10;99699.00;5058819;28;45375;-60
2023/10/31 00:39:04;;;;;;;;;0.75;0.75;;;;;13.15;87.40;99708.06;5059080;28;45237;-60
2023/10/31 00:41:30;;;;;;;;;1.00;1.00;;;;;13.23;87.21;99712.97;5061612;28;46968;-60
2023/10/31 00:43:55;;;;;;;;;2.00;2.00;;;;;13.13;87.26;99709.09;5065494;28;45323;-60
2023/10/31 00:46:20;;;;;;;;;1.50;1.00;;;;;13.16;87.11;99727.69;5074561;28;45478;-60
2023/10/31 00:48:46;;;;;;;;;2.75;2.00;;;;;13.00;87.16;99695.59;5072498;28;45417;-60
2023/10/31 00:51:11;;;;;;;;;2.00;1.00;;;;;12.95;87.09;99695.00;5064208;28;48253;-60
2023/10/31 00:53:36;;;;;;;;;2.50;1.25;;;;;13.15;87.51;99725.97;5072473;28;45418;-61
2023/10/31 00:56:02;;;;;;;;;0.00;0.00;;;;;13.14;87.52;99726.91;5064180;28;45360;-60
2023/10/31 00:58:27;;;;;;;;;2.00;1.00;;;;;12.96;87.28;99713.66;5072481;28;45421;-60
2023/10/31 01:00:52;;;;;;;;;1.00;1.00;;;;;12.90;87.49;99691.72;5081564;28;58065;-60
2023/10/31 01:03:18;;;;;;;;;2.00;2.00;;;;;13.01;87.66;99716.03;5082339;27;45420;-60
2023/10/31 01:05:43;;;;;;;;;3.00;1.25;;;;;13.09;87.76;99726.31;5064024;28;45568;-60
2023/10/31 01:08:08;;;;;;;;;1.50;1.00;;;;;13.08;87.34;99722.78;5071965;28;45329;-60
2023/10/31 01:10:34;;;;;;;;;2.00;2.00;;;;;13.13;87.19;99730.53;5082167;27;45349;-60
2023/10/31 01:12:59;;;;;;;;;1.50;1.50;;;;;12.93;87.40;99707.59;5071214;28;45375;-60
2023/10/31 01:15:24;;;;;;;;;1.50;1.50;;;;;12.95;87.39;99709.25;5077440;28;56853;-60
2023/10/31 01:17:50;;;;;;;;;1.50;1.00;;;;;12.95;87.26;99714.59;5082146;27;45514;-60
2023/10/31 01:20:15;;;;;;;;;2.00;1.25;;;;;13.12;87.31;99740.41;5081819;27;45370;-60
2023/10/31 01:22:40;;;;;;;;;0.50;0.50;;;;;13.04;87.37;99729.25;5071266;28;45357;-60
2023/10/31 01:25:06;;;;;;;;;2.00;1.00;;;;;12.94;87.27;99712.88;5063138;28;45794;-60
2023/10/31 01:27:31;;;;;;;;;1.00;1.00;;;;;12.93;87.11;99711.16;5082002;27;45740;-60
2023/10/31 01:29:56;;;;;;;;;1.00;1.00;;;;;12.81;87.26;99701.16;5081421;27;46302;-60
2023/10/31 01:32:22;;;;;;;;;1.25;1.25;;;;;12.84;87.28;99705.47;5071894;28;65867;-60
2023/10/31 01:34:47;;;;;;;;;1.00;1.00;;;;;12.88;87.06;99704.31;5073998;28;45550;-60
2023/10/31 01:37:14;;;;;;;;;1.00;1.00;;;;;12.83;87.19;99701.94;5061651;28;45417;-60
2023/10/31 01:39:39;;;;;;;;;2.00;1.75;;;;;13.09;86.80;99753.13;5061394;28;45792;-60
2023/10/31 01:42:05;;;;;;;;;3.25;2.00;;;;;12.87;86.76;99716.88;5061540;28;45331;-60
2023/10/31 01:44:30;;;;;;;;;1.50;1.50;;;;;12.98;87.14;99735.00;5064264;28;45451;-60
2023/10/31 01:46:56;;;;;;;;;1.00;1.00;;;;;13.06;87.06;99750.63;5065392;28;45427;-60
2023/10/31 01:49:21;;;;;;;;;2.00;2.00;;;;;12.80;87.03;99715.50;5061110;28;45839;-60
2023/10/31 01:51:48;;;;;;;;;1.50;0.00;;;;;13.00;87.08;99748.28;5060344;28;46434;-60
2023/10/31 01:54:14;;;;;;;;;1.00;1.00;;;;;12.82;86.99;99724.31;5061379;28;45371;-60
2023/10/31 01:56:40;;;;;;;;;1.00;1.00;;;;;12.81;86.86;99733.28;5068693;28;45480;-60
2023/10/31 01:59:06;;;;;;;;;1.25;0.75;;;;;12.92;87.13;99754.94;5065682;27;45552;-60
2023/10/31 02:01:41;;;;;;;;;1.00;1.00;;;;;12.98;87.38;99761.78;5060972;28;45326;-60
2023/10/31 02:04:07;;;;;;;;;1.00;1.00;;;;;12.96;87.14;99769.91;5061134;28;45394;-60
2023/10/31 02:06:32;;;;;;;;;1.00;1.00;;;;;12.84;87.04;99748.31;5060938;28;45645;-60
2023/10/31 02:08:57;;;;;;;;;1.00;1.00;;;;;12.97;87.16;99765.41;5060390;28;57109;-60
2023/10/31 02:11:23;;;;;;;;;4.75;3.00;;;;;12.83;87.04;99747.47;5069532;28;45303;-60
2023/10/31 02:13:48;;;;;;;;;2.00;2.00;;;;;13.03;87.02;99767.75;5076434;28;45275;-60
2023/10/31 02:16:13;;;;;;;;;4.00;3.00;;;;;13.00;87.25;99777.75;5060914;28;45297;-60
2023/10/31 02:18:39;;;;;;;;;3.00;2.00;;;;;12.98;87.41;99768.00;5060663;28;45333;-60
2023/10/31 02:21:04;;;;;;;;;1.50;1.50;;;;;12.88;86.92;99749.84;5060757;28;45584;-60
2023/10/31 02:23:30;;;;;;;;;2.25;2.00;;;;;12.86;87.39;99762.47;5060778;28;45531;-60
2023/10/31 02:25:55;;;;;;;;;2.00;2.00;;;;;12.91;87.57;99765.75;5060909;28;45343;-60
2023/10/31 02:28:20;;;;;;;;;2.50;2.50;;;;;12.93;87.19;99778.13;5060482;28;46441;-60
2023/10/31 02:30:46;;;;;;;;;3.00;2.50;;;;;12.89;87.69;99773.03;5060538;28;45626;-60
2023/10/31 02:33:11;;;;;;;;;2.00;1.00;;;;;12.94;87.81;99782.50;5075806;28;45655;-60
2023/10/31 02:35:36;;;;;;;;;3.00;2.00;;;;;12.96;87.68;99788.66;5081109;27;45520;-60
2023/10/31 02:38:02;;;;;;;;;2.25;2.00;;;;;12.86;87.88;99768.69;5080637;27;45975;-60
2023/10/31 02:40:27;;;;;;;;;5.25;3.00;;;;;12.86;87.95;99766.00;5080929;27;45351;-60
2023/10/31 02:42:53;;;;;;;;;2.00;2.00;;;;;12.78;87.76;99760.25;5078687;27;45453;-60
2023/10/31 02:45:18;;;;;;;;;3.75;2.00;;;;;12.95;87.73;99776.22;5060127;28;45452;-60
2023/10/31 02:47:44;;;;;;;;;4.00;3.00;;;;;12.97;87.79;99790.38;5064487;28;46498;-60
2023/10/31 02:50:09;;;;;;;;;3.75;3.75;;;;;12.96;87.82;99783.31;5067697;28;45365;-60
2023/10/31 02:52:34;;;;;;;;;3.00;2.00;;;;;12.88;87.77;99777.53;5075283;28;64259;-60
2023/10/31 02:55:00;;;;;;;;;4.50;3.00;;;;;12.87;88.14;99778.47;5060371;28;45527;-60
2023/10/31 02:57:25;;;;;;;;;5.75;4.00;;;;;12.70;88.74;99749.13;5072503;28;47078;-60
2023/10/31 02:59:50;;;;;;;;;4.00;3.25;;;;;12.66;88.71;99740.38;5060077;28;45323;-60
2023/10/31 03:02:16;;;;;;;;;5.50;4.75;;;;;12.90;88.46;99780.13;5060189;28;45352;-60
2023/10/31 03:04:41;;;;;;;;;3.00;3.00;;;;;12.88;88.50;99777.53;5066832;28;45925;-60
2023/10/31 03:07:06;;;;;;;;;4.00;3.25;;;;;12.79;88.58;99761.97;5065451;28;46539;-60
2023/10/31 03:09:32;;;;;;;;;3.25;2.25;;;;;12.92;88.79;99787.09;5058713;28;45719;-60
2023/10/31 03:11:57;;;;;;;;;2.00;2.00;;;;;12.85;89.09;99775.03;5060199;28;45308;-60
2023/10/31 03:14:22;;;;;;;;;5.25;4.00;;;;;12.92;88.95;99794.28;5059725;28;45527;-60
2023/10/31 03:16:48;;;;;;;;;3.75;3.00;;;;;12.76;88.77;99768.38;5059585;28;46894;-60
2023/10/31 03:19:13;;;;;;;;;4.50;3.25;;;;;12.79;88.95;99772.69;5065856;28;45306;-60
2023/10/31 03:21:39;;;;;;;;;4.00;4.00;;;;;12.77;89.21;99772.75;5066060;27;45308;-60
2023/10/31 03:24:05;;;;;;;;;2.00;0.25;;;;;12.82;89.41;99790.41;5059992;28;45725;-60
2023/10/31 03:26:30;;;;;;;;;6.50;5.25;;;;;12.77;89.38;99779.94;5059547;28;47178;-60
2023/10/31 03:28:57;;;;;;;;;3.75;3.00;;;;;12.70;89.42;99778.56;5059173;28;62700;-60
2023/10/31 03:31:23;;;;;;;;;2.50;2.50;;;;;12.91;89.49;99812.19;5059655;28;45461;-60
2023/10/31 03:33:49;;;;;;;;;5.50;3.00;;;;;12.93;89.46;99812.06;5059673;28;45563;-60
2023/10/31 03:36:14;;;;;;;;;6.50;2.75;;;;;12.81;89.64;99794.88;5059126;28;48392;-60
2023/10/31 03:38:43;;;;;;;;;3.50;2.75;;;;;12.69;89.67;99777.69;5080083;27;45445;-60
2023/10/31 03:41:08;;;;;;;;;5.50;4.00;;;;;12.89;89.68;99808.69;5079902;28;45371;-60
2023/10/31 03:43:34;;;;;;;;;5.75;4.00;;;;;12.84;89.63;99804.56;5070099;28;45341;-60
2023/10/31 03:46:00;;;;;;;;;5.75;1.25;;;;;12.73;89.89;99783.72;5056317;28;47814;-60
2023/10/31 03:48:25;;;;;;;;;4.25;3.25;;;;;12.90;89.92;99815.78;5058066;28;45348;-60
2023/10/31 03:50:51;;;;;;;;;3.00;3.00;;;;;12.71;89.89;99774.94;5059473;28;45553;-60
2023/10/31 03:53:16;;;;;;;;;4.75;4.50;;;;;12.92;89.98;99813.88;5040448;28;45458;-60
2023/10/31 03:55:42;;;;;;;;;4.50;4.50;;;;;12.93;90.13;99815.63;5059193;28;45455;-60
2023/10/31 03:58:07;;;;;;;;;4.00;3.00;;;;;12.87;90.28;99799.03;5066211;28;45496;-60
2023/10/31 04:00:33;;;;;;;;;1.75;1.50;;;;;12.97;90.21;99816.31;5064462;27;45404;-60
2023/10/31 04:02:58;;;;;;;;;2.00;2.00;;;;;13.00;90.12;99817.94;5058283;28;45354;-60
2023/10/31 04:05:23;;;;;;;;;2.25;2.25;;;;;12.75;90.03;99781.84;5058983;28;46372;-60
2023/10/31 04:07:49;;;;;;;;;3.50;2.75;;;;;13.01;90.34;99823.19;5064966;28;63285;-60
2023/10/31 04:10:15;;;;;;;;;4.50;4.00;;;;;13.00;90.06;99826.84;5064980;27;45319;-60
2023/10/31 04:12:40;;;;;;;;;2.50;2.50;;;;;12.87;90.26;99818.63;5058044;28;45489;-60
2023/10/31 04:15:07;;;;;;;;;4.00;3.00;;;;;12.93;90.23;99836.16;5058127;28;46642;-60
2023/10/31 04:17:33;;;;;;;;;3.25;3.00;;;;;12.77;90.51;99815.63;5058990;28;45608;-60
2023/10/31 04:19:58;;;;;;;;;5.25;2.75;;;;;12.83;90.78;99829.59;5058497;28;45375;-60
2023/10/31 04:22:23;;;;;;;;;3.00;3.00;;;;;12.93;90.60;99842.41;5057784;28;46023;-60
2023/10/31 04:24:49;;;;;;;;;2.75;2.75;;;;;12.74;90.81;99814.94;5058909;28;45383;-60
2023/10/31 04:27:14;;;;;;;;;5.00;3.50;;;;;12.78;90.80;99820.03;5059092;28;45402;-60
2023/10/31 04:29:39;;;;;;;;;4.00;3.00;;;;;12.87;90.99;99831.19;5058893;28;45346;-60
2023/10/31 04:32:05;;;;;;;;;4.50;2.75;;;;;12.94;91.09;99848.63;5064397;28;45318;-60
2023/10/31 04:34:31;;;;;;;;;2.50;1.50;;;;;12.88;90.89;99830.22;5077715;28;46651;-60
2023/10/31 04:36:57;;;;;;;;;2.00;2.00;;;;;12.96;91.05;99844.91;5079254;27;45539;-60
2023/10/31 04:39:22;;;;;;;;;4.00;3.00;;;;;13.02;90.85;99845.53;5079345;27;45535;-60
2023/10/31 04:41:47;;;;;;;;;2.00;2.00;;;;;13.00;90.95;99852.75;5078924;27;45397;-60
2023/10/31 04:44:13;;;;;;;;;2.75;2.75;;;;;13.01;90.94;99844.63;5065742;27;45505;-60
2023/10/31 04:46:39;;;;;;;;;4.00;2.75;;;;;13.05;90.88;99862.28;5070804;28;45391;-60
2023/10/31 04:49:04;;;;;;;;;4.00;4.00;;;;;13.07;91.19;99870.22;5071694;28;45305;-60
2023/10/31 04:51:34;;;;;;;;;5.50;3.00;;;;;13.03;91.23;99855.25;5058100;28;45434;-60
2023/10/31 04:54:00;;;;;;;;;2.25;2.25;;;;;12.94;90.92;99838.75;5071695;28;46484;-60
2023/10/31 04:56:25;;;;;;;;;4.00;4.00;;;;;12.90;91.01;99839.91;5078961;27;45287;-60
2023/10/31 04:58:50;;;;;;;;;5.00;3.75;;;;;13.04;91.13;99868.56;5078862;27;45560;-60
2023/10/31 05:01:16;;;;;;;;;3.25;3.00;;;;;12.88;91.53;99843.59;5057562;27;45615;-60
2023/10/31 05:03:41;;;;;;;;;2.00;2.00;;;;;12.78;91.19;99822.72;5071187;28;46327;-60
2023/10/31 05:06:06;;;;;;;;;4.25;4.00;;;;;12.67;91.57;99809.06;5078487;27;45664;-60
2023/10/31 05:08:32;;;;;;;;;8.50;4.50;;;;;13.05;91.52;99869.47;5078807;27;45652;-60
2023/10/31 05:10:58;;;;;;;;;6.75;4.00;;;;;12.95;91.58;99853.91;5078596;27;45440;-60
2023/10/31 05:13:24;;;;;;;;;4.50;4.50;;;;;13.01;91.93;99867.88;5078594;27;45560;-60
2023/10/31 05:15:50;;;;;;;;;5.00;4.00;;;;;13.13;91.95;99876.09;5078285;27;45385;-60
2023/10/31 05:18:15;;;;;;;;;4.25;4.00;;;;;13.14;91.91;99877.81;5078686;27;45389;-60
2023/10/31 05:20:41;;;;;;;;;4.75;3.50;;;;;13.13;91.83;99875.22;5078315;27;45332;-60
2023/10/31 05:23:06;;;;;;;;;6.25;5.00;;;;;13.14;91.83;99874.28;5077880;28;60139;-60
2023/10/31 05:25:32;;;;;;;;;5.00;3.50;;;;;13.10;91.82;99868.25;5078357;27;45272;-60
2023/10/31 05:27:57;;;;;;;;;4.75;3.50;;;;;13.18;92.17;99883.91;5080902;27;45452;-60
2023/10/31 05:30:22;;;;;;;;;9.25;5.50;;;;;13.20;91.97;99881.09;5060780;28;45542;-60
2023/10/31 05:32:49;;;;;;;;;5.00;3.75;;;;;12.91;91.95;99838.06;5074520;28;45755;-60
2023/10/31 05:35:15;;;;;;;;;5.00;3.50;;;;;12.96;92.03;99838.69;5060457;28;45629;-60
2023/10/31 05:37:40;;;;;;;;;7.75;4.25;;;;;13.23;92.07;99887.16;5074665;28;45341;-60
2023/10/31 05:40:06;;;;;;;;;6.75;5.75;;;;;13.27;92.06;99896.75;5060925;28;45588;-60
2023/10/31 05:42:31;;;;;;;;;7.00;5.50;;;;;13.05;92.29;99861.44;5074402;28;45366;-60
2023/10/31 05:44:57;;;;;;;;;7.00;4.75;;;;;13.28;92.59;99898.50;5060215;28;49931;-60
2023/10/31 05:47:22;;;;;;;;;4.00;4.00;;;;;13.30;92.29;99901.94;5065627;28;45381;-60
2023/10/31 05:49:48;;;;;;;;;5.75;5.00;;;;;13.33;92.37;99906.28;5079211;28;45656;-60
2023/10/31 05:52:13;;;;;;;;;6.00;5.00;;;;;13.27;92.16;99899.44;5069348;27;45924;-60
2023/10/31 05:54:39;;;;;;;;;6.50;4.00;;;;;13.36;92.44;99911.47;5061007;28;45408;-60
2023/10/31 05:57:04;;;;;;;;;4.75;4.00;;;;;13.29;92.30;99891.31;5061535;28;45802;-60
2023/10/31 05:59:29;;;;;;;;;5.75;4.50;;;;;13.35;92.24;99899.03;5078162;28;45618;-60
2023/10/31 06:01:55;;;;;;;;;3.75;3.00;;;;;13.29;92.32;99893.97;5069512;27;45460;-60
2023/10/31 06:04:20;;;;;;;;;3.25;3.25;;;;;13.31;92.33;99902.78;5061104;28;45501;-60
2023/10/31 06:06:46;;;;;;;;;5.25;4.25;;;;;13.40;92.56;99918.41;5061160;28;45445;-60
2023/10/31 06:09:11;;;;;;;;;6.00;4.00;;;;;13.14;92.29;99863.56;5060834;28;45246;-60
2023/10/31 06:11:39;;;;;;;;;3.50;3.50;;;;;13.34;92.43;99897.28;5070745;28;47186;-60
2023/10/31 06:14:05;;;;;;;;;3.00;3.00;;;;;13.19;92.62;99868.66;5062849;27;45409;-61
2023/10/31 06:16:30;;;;;;;;;3.50;2.50;;;;;13.31;92.29;99894.75;5059579;28;45346;-60
2023/10/31 06:18:55;;;;;;;;;5.00;3.25;;;;;13.33;92.42;99899.13;5060761;28;45318;-60
2023/10/31 06:21:21;;;;;;;;;3.75;2.25;;;;;13.41;92.45;99903.16;5060731;28;45582;-60
2023/10/31 06:23:46;;;;;;;;;3.75;3.00;;;;;13.41;92.17;99903.16;5077255;28;45859;-60
2023/10/31 06:26:11;;;;;;;;;5.50;5.00;;;;;13.38;92.32;99904.22;5076644;28;45308;-60
2023/10/31 06:28:37;;;;;;;;;4.00;4.00;;;;;13.28;92.36;99901.16;5078194;28;45322;-60
2023/10/31 06:31:06;;;;;;;;;4.75;3.00;;;;;13.28;92.81;99895.81;5080891;27;45480;-60
2023/10/31 06:33:31;;;;;;;;;3.00;3.00;;;;;13.39;92.03;99911.28;5067271;27;45560;-60
2023/10/31 06:35:56;;;;;;;;;5.00;5.00;;;;;13.34;92.19;99908.03;5080386;28;58470;-60
2023/10/31 06:38:22;;;;;;;;;3.00;3.00;;;;;13.39;92.18;99915.81;5060423;28;45460;-60
2023/10/31 06:40:47;;;;;;;;;3.00;3.00;;;;;13.27;92.17;99904.78;5072333;28;45750;-60
2023/10/31 06:43:13;;;;;;;;;2.75;2.75;;;;;13.36;92.32;99921.34;5075532;27;45252;-60
2023/10/31 06:45:38;;;;;;;;;6.00;3.50;;;;;13.39;92.14;99926.53;5061255;28;45485;-60
2023/10/31 06:48:05;;;;;;;;;3.25;3.25;;;;;13.46;92.32;99947.50;5075056;28;57966;-60
2023/10/31 06:50:32;;;;;;;;;3.75;2.75;;;;;13.42;92.36;99940.63;5072592;28;46125;-60
2023/10/31 06:52:57;;;;;;;;;6.00;4.00;;;;;13.29;92.34;99910.06;5080423;27;45453;-60
2023/10/31 06:55:22;;;;;;;;;4.25;3.75;;;;;13.48;92.40;99940.28;5080668;28;45416;-60
2023/10/31 06:57:48;;;;;;;;;3.00;3.00;;;;;13.45;92.39;99940.44;5080522;27;45551;-60
2023/10/31 07:00:13;;;;;;;;;4.75;4.75;;;;;13.32;92.88;99900.06;5080121;27;45512;-60
2023/10/31 07:02:39;;;;;;;;;3.00;3.00;;;;;13.44;92.39;99922.63;5080332;27;45362;-60
2023/10/31 07:05:05;;;;;;;;;2.75;2.75;;;;;13.43;92.19;99926.28;5080498;27;45471;-61
2023/10/31 07:07:30;;;;;;;;;2.50;2.50;;;;;13.48;92.27;99940.28;5059855;28;46512;-60
2023/10/31 07:09:55;;;;;;;;;2.25;2.25;;;;;13.55;92.14;99945.25;5071566;28;62107;-60
2023/10/31 07:12:21;;;;;;;;;2.00;2.00;;;;;13.58;92.26;99955.81;5080230;27;45301;-60
2023/10/31 07:14:46;;;;;;;;;4.25;2.00;;;;;13.61;92.18;99961.00;5080080;27;45422;-60
2023/10/31 07:17:12;;;;;;;;;3.00;3.00;;;;;13.61;91.99;99964.53;5080224;27;45304;-60
2023/10/31 07:19:37;;;;;;;;;3.25;2.00;;;;;13.61;91.94;99967.22;5066919;28;55103;-60
2023/10/31 07:22:03;;;;;;;;;7.00;5.25;;;;;13.55;92.18;99954.19;5078057;28;45300;-60
2023/10/31 07:24:28;;;;;;;;;3.75;3.00;;;;;13.48;92.03;99942.97;5080331;27;45263;-60
2023/10/31 07:26:54;;;;;;;;;4.50;2.75;;;;;13.62;91.77;99963.59;5060579;28;45329;-60
2023/10/31 07:29:20;;;;;;;;;1.00;1.00;;;;;13.59;91.82;99962.91;5069742;28;47891;-60
2023/10/31 07:31:45;;;;;;;;;1.00;1.00;;;;;13.55;91.99;99964.03;5064588;28;45367;-60
2023/10/31 07:34:13;;;;;;;;;5.00;2.50;;;;;13.57;91.77;99964.84;5067903;28;45322;-60
2023/10/31 07:36:41;;;;;;;;;3.75;2.00;;;;;13.52;91.74;99962.41;5077594;28;45492;-60
2023/10/31 07:39:06;;;;;;;;;2.75;2.75;;;;;13.40;92.07;99952.38;5079892;28;45555;-60
2023/10/31 07:41:32;;;;;;;;;3.00;3.00;;;;;13.62;92.05;99990.41;5079699;28;45259;-60
2023/10/31 07:43:57;;;;;;;;;3.00;2.50;;;;;13.65;91.68;100003.66;5067851;28;54358;-60
2023/10/31 07:46:23;;;;;;;;;3.00;2.00;;;;;13.48;91.95;99971.56;5063021;28;45540;-60
2023/10/31 07:48:48;;;;;;;;;4.00;4.00;;;;;13.41;91.74;99957.63;5059273;28;45396;-60
2023/10/31 07:51:14;;;;;;;;;4.50;2.00;;;;;13.64;91.81;100004.59;5075274;28;45351;-60
2023/10/31 07:53:40;;;;;;;;;4.75;2.75;;;;;13.58;91.81;99994.25;5068706;27;45521;-60
2023/10/31 07:56:14;;;;;;;;;3.00;2.00;;;;;13.60;91.54;99988.75;5059359;28;45322;-60
2023/10/31 07:58:40;;;;;;;;;4.75;3.00;;;;;13.51;91.69;99972.28;5059264;28;45447;-60
2023/10/31 08:01:05;;;;;;;;;2.00;2.00;;;;;13.70;91.67;100001.56;5058872;28;45419;-60
2023/10/31 08:03:30;;;;;;;;;3.25;3.25;;;;;13.75;91.65;100009.38;5059336;28;45373;-60
2023/10/31 08:05:56;;;;;;;;;2.00;2.00;;;;;13.60;91.77;99994.13;5058593;28;50691;-61
2023/10/31 08:08:22;;;;;;;;;4.00;2.50;;;;;13.81;91.78;100022.41;5059254;28;45398;-60
2023/10/31 08:10:48;;;;;;;;;3.00;1.50;;;;;13.60;91.89;99981.59;5058939;28;45385;-60
2023/10/31 08:13:14;;;;;;;;;2.00;1.50;;;;;13.64;91.64;99988.50;5059166;28;45387;-60
2023/10/31 08:15:39;;;;;;;;;2.50;2.00;;;;;13.61;91.49;99980.63;5058739;28;45362;-61
2023/10/31 08:18:05;;;;;;;;;1.25;1.00;;;;;13.80;91.47;100014.44;5069150;28;47954;-61
2023/10/31 08:20:33;;;;;;;;;3.00;2.00;;;;;13.78;91.75;100024.41;5074153;28;45533;-61
2023/10/31 08:22:59;;;;;;;;;2.00;2.00;;;;;13.82;91.52;100034.03;5059125;28;45264;-61
2023/10/31 08:25:24;;;;;;;;;1.00;1.00;;;;;13.77;91.36;100022.69;5058819;28;45248;-61
2023/10/31 08:27:49;;;;;;;;;1.75;1.75;;;;;13.63;91.22;99999.31;5058927;28;46303;-62
2023/10/31 08:30:15;;;;;;;;;2.00;2.00;;;;;13.82;90.92;100020.63;5058373;28;45428;-61
2023/10/31 08:32:40;;;;;;;;;4.00;2.00;;;;;13.78;91.31;100019.94;5059122;28;45281;-61
2023/10/31 08:35:06;;;;;;;;;1.00;1.00;;;;;13.68;91.46;99995.44;5058817;28;45432;-60
2023/10/31 08:37:31;;;;;;;;;2.00;1.00;;;;;13.92;91.47;100051.31;5058795;28;45753;-60
2023/10/31 08:39:56;;;;;;;;;1.25;1.25;;;;;13.96;90.91;100062.72;5058668;28;45451;-60
2023/10/31 08:42:22;;;;;;;;;1.25;1.25;;;;;13.83;90.27;100042.00;5059209;28;50469;-60
2023/10/31 08:44:47;;;;;;;;;1.50;1.50;;;;;13.96;90.49;100062.72;5073583;28;45430;-61
2023/10/31 08:47:12;;;;;;;;;1.00;1.00;;;;;14.00;90.55;100065.16;5061695;28;46957;-60
2023/10/31 08:49:38;;;;;;;;;1.75;1.00;;;;;13.79;90.55;100035.06;5076297;28;45291;-60
2023/10/31 08:52:04;;;;;;;;;2.00;2.00;;;;;13.96;90.54;100052.00;5079123;27;45422;-60
2023/10/31 08:54:29;;;;;;;;;2.25;2.25;;;;;14.04;90.48;100057.78;5078684;27;45492;-61
2023/10/31 08:56:54;;;;;;;;;2.00;1.50;;;;;14.07;90.51;100063.84;5078958;27;45399;-60
2023/10/31 08:59:20;;;;;;;;;4.00;2.00;;;;;14.02;90.66;100051.66;5078661;27;45520;-60
2023/10/31 09:01:45;;;;;;;;;2.50;2.50;;;;;13.95;90.63;100051.16;5080860;27;45545;-60
2023/10/31 09:04:10;;;;;;;;;4.00;2.00;;;;;13.94;90.48;100059.28;5067091;28;46712;-61
2023/10/31 09:06:36;;;;;;;;;3.75;2.00;;;;;13.99;90.29;100063.41;5070586;28;46967;-60
2023/10/31 09:09:03;;;;;;;;;2.25;2.25;;;;;13.83;90.70;100042.00;5078526;28;45325;-60
2023/10/31 09:11:29;;;;;;;;;3.00;1.25;;;;;14.11;90.57;100090.50;5070765;28;45430;-60
2023/10/31 09:13:54;;;;;;;;;4.00;4.00;;;;;14.10;90.48;100086.97;5090957;27;45505;-60
2023/10/31 09:16:19;;;;;;;;;3.75;3.00;;;;;14.04;90.22;100077.44;5070053;28;47730;-60
2023/10/31 09:18:46;;;;;;;;;2.00;2.00;;;;;13.95;90.58;100053.84;5065194;27;45236;-60
2023/10/31 09:21:12;;;;;;;;;2.00;2.00;;;;;14.13;90.84;100088.59;5061793;28;45413;-60
2023/10/31 09:23:37;;;;;;;;;2.00;2.00;;;;;14.23;90.40;100103.22;5061612;28;45431;-60
2023/10/31 09:26:03;;;;;;;;;1.25;1.25;;;;;14.07;90.18;100071.91;5061598;28;47016;-60
2023/10/31 09:28:28;;;;;;;;;1.75;1.25;;;;;14.27;89.84;100115.53;5061539;28;45545;-60
2023/10/31 09:30:53;;;;;;;;;2.00;2.00;;;;;14.12;89.69;100101.16;5061397;28;45418;-61
2023/10/31 09:33:19;;;;;;;;;1.50;1.00;;;;;14.10;89.89;100095.03;5077322;28;45428;-60
2023/10/31 09:35:44;;;;;;;;;3.25;2.25;;;;;14.21;90.15;100110.50;5077061;28;48040;-60
2023/10/31 09:38:09;;;;;;;;;1.00;1.00;;;;;14.08;90.27;100113.91;5061483;28;45406;-60
2023/10/31 09:40:38;;;;;;;;;1.00;1.00;;;;;14.07;89.80;100100.56;5061717;28;45555;-60
2023/10/31 09:43:05;;;;;;;;;1.50;1.50;;;;;14.21;89.56;100131.97;5063840;28;45322;-60
2023/10/31 09:45:31;;;;;;;;;2.00;2.00;;;;;14.27;89.75;100131.63;5070838;28;46374;-59
2023/10/31 09:48:00;;;;;;;;;3.00;1.00;;;;;14.13;89.63;100110.91;5063859;27;45543;-59
2023/10/31 09:50:26;;;;;;;;;3.75;2.00;;;;;14.33;89.51;100147.34;5060105;28;45400;-60
2023/10/31 09:52:52;;;;;;;;;5.00;2.50;;;;;14.19;89.79;100129.38;5061248;28;45397;-61
2023/10/31 09:55:19;;;;;;;;;2.75;2.75;;;;;14.18;89.67;100129.47;5059815;28;47860;-60
2023/10/31 09:57:45;;;;;;;;;1.50;1.00;;;;;14.13;89.77;100118.13;5061249;28;46448;-60
2023/10/31 10:00:11;;;;;;;;;1.75;1.75;;;;;14.27;90.06;100151.28;5061040;28;45260;-60
2023/10/31 10:02:36;;;;;;;;;2.00;2.00;;;;;14.00;89.68;100102.72;5061068;28;45314;-60
2023/10/31 10:05:02;;;;;;;;;3.25;1.00;;;;;14.16;90.05;100139.41;5061055;28;45693;-60
2023/10/31 10:07:27;;;;;;;;;2.00;2.00;;;;;14.36;89.86;100176.72;5060998;28;45495;-60
2023/10/31 10:09:53;;;;;;;;;2.00;1.50;;;;;14.19;89.89;100142.78;5061129;28;45552;-60
2023/10/31 10:12:18;;;;;;;;;1.00;1.00;;;;;14.22;89.87;100149.81;5077028;28;45722;-60
2023/10/31 10:14:47;;;;;;;;;1.50;1.00;;;;;14.38;89.49;100166.78;5075975;27;46223;-61
2023/10/31 10:17:22;;;;;;;;;2.00;1.25;;;;;14.23;89.29;100135.41;5078880;28;45474;-60
2023/10/31 10:19:47;;;;;;;;;1.00;1.00;;;;;14.36;89.41;100152.56;5067468;28;45584;-61
2023/10/31 10:22:14;;;;;;;;;0.25;0.25;;;;;14.20;88.64;100125.75;5079678;28;45531;-61
2023/10/31 10:24:41;;;;;;;;;1.00;1.00;;;;;14.28;89.21;100133.34;5080971;28;46244;-61
2023/10/31 10:27:09;;;;;;;;;1.50;1.00;;;;;14.37;88.83;100148.94;5080957;27;45272;-61
2023/10/31 10:29:35;;;;;;;;;1.00;1.00;;;;;14.45;89.18;100152.03;5062559;28;45404;-61
2023/10/31 10:32:00;;;;;;;;;2.00;1.00;;;;;14.41;88.66;100131.69;5074537;27;45552;-61
2023/10/31 10:34:26;;;;;;;;;1.50;1.50;;;;;14.48;88.65;100147.44;5072242;28;48321;-61
2023/10/31 10:36:53;;;;;;;;;1.00;0.00;;;;;14.49;88.24;100147.34;5060802;27;55225;-61
2023/10/31 10:39:22;;;;;;;;;0.75;0.75;;;;;14.44;88.04;100141.38;5055442;28;45410;-61
2023/10/31 10:42:01;;;;;;;;;1.50;1.00;;;;;14.50;88.43;100153.59;5079483;28;45691;-61
2023/10/31 10:44:34;;;;;;;;;0.75;0.75;;;;;14.62;88.37;100179.78;5075984;27;47861;-60
2023/10/31 10:47:04;;;;;;;;;0.50;0.25;;;;;14.66;88.00;100173.25;5064542;28;45462;-60
2023/10/31 10:49:33;;;;;;;;;2.00;1.00;;;;;14.64;87.89;100167.97;5060327;28;45347;-60
2023/10/31 10:52:06;;;;;;;;;1.00;1.00;;;;;14.68;87.94;100182.09;5060263;28;45418;-59
2023/10/31 10:54:37;;;;;;;;;1.75;1.00;;;;;14.80;87.59;100205.56;5060147;28;45408;-62
2023/10/31 10:57:23;;;;;;;;;3.75;1.75;;;;;14.70;87.42;100182.00;5060231;28;45571;-62
2023/10/31 10:59:52;;;;;;;;;1.50;1.00;;;;;14.73;87.48;100190.72;5068295;28;45386;-62
2023/10/31 11:02:18;;;;;;;;;2.25;2.00;;;;;14.70;87.17;100190.06;5078891;28;45401;-62
2023/10/31 11:04:44;;;;;;;;;1.25;1.25;;;;;14.77;87.13;100203.06;5080340;27;45452;-62
2023/10/31 11:07:10;;;;;;;;;1.00;1.00;;;;;14.70;87.38;100188.25;5080172;27;45487;-62
2023/10/31 11:09:36;;;;;;;;;1.75;1.75;;;;;14.73;87.06;100188.06;5070736;28;45535;-61
2023/10/31 11:12:03;;;;;;;;;1.00;1.00;;;;;14.77;86.86;100194.13;5087570;27;45512;-61
2023/10/31 11:14:30;;;;;;;;;0.75;0.75;;;;;14.88;87.54;100207.78;5059675;28;45349;-60
2023/10/31 11:17:00;;;;;;;;;1.00;1.00;;;;;14.75;87.43;100188.84;5060128;28;45318;-61
2023/10/31 11:19:27;;;;;;;;;2.75;0.50;;;;;14.84;87.09;100189.28;5068200;28;45418;-61
2023/10/31 11:21:57;;;;;;;;;1.00;1.00;;;;;14.90;86.70;100187.09;5063664;27;45409;-61
2023/10/31 11:24:23;;;;;;;;;1.00;1.00;;;;;14.87;86.67;100186.38;5058723;28;46768;-61